Route Details

Aircraft Information
Group: North America Fleet
Types: B738, B752, B762, B763
Route Data
Distance: 928nm
Duration: 2h 45m
Origin METAR: KMCI 152353Z 07017G24KT 10SM OVC100 26/18 A2997 RMK AO2 SLP138 T02560178 10306 20256 55002
Dest. METAR: KLAL 152350Z 21005KT 10SM SKC 28/22 A2989
Freight Data
(for Aug 16, 2022)
Load Factor:
79%
Manifested Cargo: 62,313lbs
Financial History
Total Freight: 15,561lbs
Average Load: 0lbs/flt
Fuel Used: 13,854lbs
Avg. Fuel Used: 0lbs/flt
Fuel Expense: $9,421
Avg. Fuel Expense: $0
Avg. Fuel Cost: $0/lbs
Total Gross Income: $40,770
Pilot Pay: $239
Total Expenses: $5,569
Total Revenue: $25,139
Average Revenue: $0

Capitol Logistics 426




KMCI
Kansas City International Airport
Kansas City, Missouri
KLAL
Lakeland Linder Regional Airport
Lakeland, Florida

Activity Log

Date Flight Route Aircraft Duration
06/05/2022 CPX7367 LAKES3 COU V12 FTZ T251 FAM J151 VUZ J41 MGM V521 JEDOP DCT ACORI MAATY3 B752 2h 41m